Time;durP1;ratioP1;P1;durP2;ratioP2;P2;SDS_P1;SDS_P2;PMS_P1;PMS_P2;Temp;Humidity;BMP_temperature;BMP_pressure;BME280_temperature;BME280_humidity;BME280_pressure;Samples;Min_cycle;Max_cycle;Signal;HPM_P1;HPM_P2
2024/01/06 00:00:17;;;;;;;;;32.67;25.67;;;;;-144.62;100.00;60556.56;5037428;28;45469;-74
2024/01/06 00:02:42;;;;;;;;;29.00;28.00;;;;;-144.62;100.00;60556.56;5037090;28;45547;-75
2024/01/06 00:05:08;;;;;;;;;25.67;25.67;;;;;-144.62;100.00;60556.56;5041720;27;45518;-75
2024/01/06 00:07:33;;;;;;;;;30.67;25.67;;;;;-144.62;100.00;60556.56;5039408;27;45678;-75
2024/01/06 00:09:58;;;;;;;;;28.67;25.00;;;;;-144.62;100.00;60556.56;5041396;27;45524;-76
2024/01/06 00:12:24;;;;;;;;;16.67;13.00;;;;;-144.62;100.00;60556.56;5037996;28;46641;-74
2024/01/06 00:14:49;;;;;;;;;28.00;22.00;;;;;-144.62;100.00;60556.56;5038434;28;45431;-74
2024/01/06 00:17:16;;;;;;;;;32.00;30.33;;;;;-144.62;100.00;60556.56;5040816;28;45363;-74
2024/01/06 00:19:43;;;;;;;;;30.25;25.25;;;;;-144.62;100.00;60556.56;5035980;28;45324;-74
2024/01/06 00:22:08;;;;;;;;;24.00;22.00;;;;;-144.62;100.00;60556.56;5034585;28;46396;-74
2024/01/06 00:24:33;;;;;;;;;22.33;21.33;;;;;-144.62;100.00;60556.56;5031606;28;45828;-74
2024/01/06 00:26:59;;;;;;;;;23.00;23.00;;;;;-144.62;100.00;60556.56;5040772;28;45675;-75
2024/01/06 00:29:24;;;;;;;;;27.50;23.50;;;;;-144.62;100.00;60556.56;5037338;28;45426;-74
2024/01/06 00:31:49;;;;;;;;;16.75;16.75;;;;;-144.62;100.00;60556.56;5040681;28;45453;-75
2024/01/06 00:34:15;;;;;;;;;25.67;22.67;;;;;-144.62;100.00;60556.56;5034666;28;45397;-75
2024/01/06 00:36:40;;;;;;;;;29.00;22.33;;;;;-144.62;100.00;60556.56;5033707;28;46051;-75
2024/01/06 00:39:05;;;;;;;;;28.67;24.33;;;;;-144.62;100.00;60556.56;5039630;28;45505;-75
2024/01/06 00:41:30;;;;;;;;;23.33;22.00;;;;;-144.62;100.00;60556.56;5041165;28;55445;-75
2024/01/06 00:43:56;;;;;;;;;21.00;18.00;;;;;-144.62;100.00;60556.56;5031297;28;45443;-75
2024/01/06 00:46:21;;;;;;;;;27.67;22.67;;;;;-144.62;100.00;60556.56;5041448;28;45278;-75
2024/01/06 00:48:46;;;;;;;;;31.33;28.67;;;;;-144.62;100.00;60556.56;5039025;28;45333;-75
2024/01/06 00:51:12;;;;;;;;;32.00;27.67;;;;;-144.62;100.00;60556.56;5033551;28;53792;-75
2024/01/06 00:53:37;;;;;;;;;23.67;18.67;;;;;-144.62;100.00;60556.56;5037149;28;45295;-74
2024/01/06 00:56:02;;;;;;;;;31.00;24.00;;;;;-144.62;100.00;60556.56;5031435;28;53260;-75
2024/01/06 00:58:28;;;;;;;;;33.00;27.00;;;;;-144.62;100.00;60556.56;5035291;28;45371;-75
2024/01/06 01:00:53;;;;;;;;;28.33;24.67;;;;;-144.62;100.00;60556.56;5038449;28;46995;-75
2024/01/06 01:03:19;;;;;;;;;29.33;26.67;;;;;-144.62;100.00;60556.56;5066455;27;45477;-75
2024/01/06 01:05:44;;;;;;;;;29.33;23.00;;;;;-144.62;100.00;60556.56;5041198;28;45437;-75
2024/01/06 01:08:10;;;;;;;;;28.00;23.67;;;;;-144.62;100.00;60556.56;5038867;27;45352;-75
2024/01/06 01:10:35;;;;;;;;;26.00;23.00;;;;;-144.62;100.00;60556.56;5040844;28;45448;-75
2024/01/06 01:13:00;;;;;;;;;27.67;22.67;;;;;-144.62;100.00;60556.56;5037265;28;47667;-75
2024/01/06 01:15:26;;;;;;;;;24.67;22.33;;;;;-144.62;100.00;60556.56;5037954;28;45372;-75
2024/01/06 01:17:51;;;;;;;;;27.67;22.33;;;;;-144.62;100.00;60556.56;5037903;28;45369;-75
2024/01/06 01:20:16;;;;;;;;;23.67;23.00;;;;;-144.62;100.00;60556.56;5048343;27;49261;-75
2024/01/06 01:22:42;;;;;;;;;27.33;26.00;;;;;-144.62;100.00;60556.56;5039631;28;45244;-76
2024/01/06 01:25:08;;;;;;;;;32.33;24.00;;;;;-144.62;100.00;60556.56;5039146;28;45212;-75
2024/01/06 01:27:34;;;;;;;;;31.67;25.33;;;;;-144.62;100.00;60556.56;5039983;27;45504;-75
2024/01/06 01:29:59;;;;;;;;;27.00;22.00;;;;;-144.62;100.00;60556.56;5039225;28;48149;-75
2024/01/06 01:32:25;;;;;;;;;23.33;23.00;;;;;-144.62;100.00;60556.56;5039475;27;58002;-75
2024/01/06 01:34:50;;;;;;;;;26.00;24.00;;;;;-144.62;100.00;60556.56;5039658;28;45252;-75
2024/01/06 01:37:16;;;;;;;;;24.00;24.00;;;;;-144.62;100.00;60556.56;5039968;28;45615;-75
2024/01/06 01:39:41;;;;;;;;;27.00;24.33;;;;;-144.62;100.00;60556.56;5032888;28;46619;-75
2024/01/06 01:42:06;;;;;;;;;29.00;26.00;;;;;-144.62;100.00;60556.56;5037098;28;45548;-75
2024/01/06 01:44:32;;;;;;;;;17.00;15.33;;;;;-144.62;100.00;60556.56;5034436;28;45575;-75
2024/01/06 01:46:58;;;;;;;;;26.67;22.33;;;;;-144.62;100.00;60556.56;5038638;28;45303;-75
2024/01/06 01:49:24;;;;;;;;;26.00;26.00;;;;;-144.62;100.00;60556.56;5040288;28;45511;-75
2024/01/06 01:51:50;;;;;;;;;27.33;21.00;;;;;-144.62;100.00;60556.56;5039573;28;45494;-75
2024/01/06 01:54:15;;;;;;;;;26.00;23.67;;;;;-144.62;100.00;60556.56;5035980;28;45463;-75
2024/01/06 01:56:42;;;;;;;;;28.00;22.33;;;;;-144.62;100.00;60556.56;5038502;28;45570;-75
2024/01/06 01:59:17;;;;;;;;;23.67;23.67;;;;;-144.62;100.00;60556.56;5030916;28;46536;-75
2024/01/06 02:01:43;;;;;;;;;25.33;23.33;;;;;-144.62;100.00;60556.56;5039573;28;45552;-75
2024/01/06 02:04:09;;;;;;;;;21.67;21.67;;;;;-144.62;100.00;60556.56;5038789;28;45466;-75
2024/01/06 02:06:34;;;;;;;;;31.67;30.00;;;;;-144.62;100.00;60556.56;5040636;27;45374;-75
2024/01/06 02:09:00;;;;;;;;;28.33;26.33;;;;;-144.62;100.00;60556.56;5037964;27;46183;-75
2024/01/06 02:11:26;;;;;;;;;20.67;19.00;;;;;-144.62;100.00;60556.56;5040136;28;45338;-75
2024/01/06 02:13:51;;;;;;;;;28.00;26.33;;;;;-144.62;100.00;60556.56;5032956;28;45428;-75
2024/01/06 02:16:17;;;;;;;;;27.00;26.00;;;;;-144.62;100.00;60556.56;5040288;28;45317;-75
2024/01/06 02:18:42;;;;;;;;;28.67;27.00;;;;;-144.62;100.00;60556.56;5031507;28;46593;-75
2024/01/06 02:21:07;;;;;;;;;36.00;31.00;;;;;-144.62;100.00;60556.56;5054498;28;45452;-75
2024/01/06 02:23:35;;;;;;;;;27.00;24.67;;;;;-144.62;100.00;60556.56;5037712;28;45519;-75
2024/01/06 02:26:01;;;;;;;;;31.33;28.33;;;;;-144.62;100.00;60556.56;5034548;28;45485;-75
2024/01/06 02:28:26;;;;;;;;;35.33;27.33;;;;;-144.62;100.00;60556.56;5030201;28;47957;-75
2024/01/06 02:30:51;;;;;;;;;29.25;22.75;;;;;-144.62;100.00;60556.56;5034307;27;46885;-75
2024/01/06 02:33:19;;;;;;;;;30.75;28.50;;;;;-144.62;100.00;60556.56;5032782;28;45332;-75
2024/01/06 02:35:44;;;;;;;;;31.75;28.00;;;;;-144.62;100.00;60556.56;5039895;28;45241;-75
2024/01/06 02:38:10;;;;;;;;;26.00;24.75;;;;;-144.62;100.00;60556.56;5038307;28;46455;-75
2024/01/06 02:40:35;;;;;;;;;33.67;28.00;;;;;-144.62;100.00;60556.56;5038240;28;45274;-75
2024/01/06 02:43:01;;;;;;;;;25.67;23.00;;;;;-144.62;100.00;60556.56;5041003;28;45427;-75
2024/01/06 02:45:26;;;;;;;;;33.00;30.25;;;;;-144.62;100.00;60556.56;5041396;28;45244;-75
2024/01/06 02:47:51;;;;;;;;;29.75;27.00;;;;;-144.62;100.00;60556.56;5037596;28;51160;-75
2024/01/06 02:50:17;;;;;;;;;30.75;29.50;;;;;-144.62;100.00;60556.56;5042649;28;45523;-75
2024/01/06 02:52:43;;;;;;;;;37.75;30.50;;;;;-144.62;100.00;60556.56;5042375;27;45279;-75
2024/01/06 02:55:09;;;;;;;;;25.67;25.67;;;;;-144.62;100.00;60556.56;5041599;27;45418;-75
2024/01/06 02:57:35;;;;;;;;;23.00;20.00;;;;;-144.62;100.00;60556.56;5041494;28;47561;-75
2024/01/06 03:00:01;;;;;;;;;30.00;25.67;;;;;-144.62;100.00;60556.56;5054454;28;45449;-75
2024/01/06 03:02:26;;;;;;;;;30.00;26.33;;;;;-144.62;100.00;60556.56;5034042;28;45374;-75
2024/01/06 03:04:51;;;;;;;;;22.00;22.00;;;;;-144.62;100.00;60556.56;5060516;27;45344;-75
2024/01/06 03:07:16;;;;;;;;;34.67;25.00;;;;;-144.62;100.00;60556.56;5041526;28;45394;-75
2024/01/06 03:09:42;;;;;;;;;26.00;24.00;;;;;-144.62;100.00;60556.56;5036991;27;51788;-75
2024/01/06 03:12:07;;;;;;;;;27.00;22.67;;;;;-144.62;100.00;60556.56;5031964;28;45440;-75
2024/01/06 03:14:36;;;;;;;;;26.00;26.00;;;;;-144.62;100.00;60556.56;5033905;28;45312;-75
2024/01/06 03:17:02;;;;;;;;;27.67;25.67;;;;;-144.62;100.00;60556.56;5041535;28;46081;-75
2024/01/06 03:19:28;;;;;;;;;29.67;28.33;;;;;-144.62;100.00;60556.56;5034023;27;45460;-75
2024/01/06 03:21:53;;;;;;;;;28.33;25.67;;;;;-144.62;100.00;60556.56;5042084;27;45457;-75
2024/01/06 03:24:20;;;;;;;;;30.67;26.67;;;;;-144.62;100.00;60556.56;5033816;28;45358;-75
2024/01/06 03:26:45;;;;;;;;;30.33;27.67;;;;;-144.62;100.00;60556.56;5033575;28;45423;-75
2024/01/06 03:29:11;;;;;;;;;28.67;27.33;;;;;-144.62;100.00;60556.56;5034083;28;45444;-75
2024/01/06 03:31:37;;;;;;;;;29.00;25.33;;;;;-144.62;100.00;60556.56;5053473;27;45415;-75
2024/01/06 03:34:02;;;;;;;;;25.67;22.67;;;;;-144.62;100.00;60556.56;5040568;28;45265;-75
2024/01/06 03:36:27;;;;;;;;;26.00;23.67;;;;;-144.62;100.00;60556.56;5042035;28;46341;-75
2024/01/06 03:38:52;;;;;;;;;26.67;26.67;;;;;-144.62;100.00;60556.56;5040618;28;48345;-75
2024/01/06 03:41:18;;;;;;;;;27.33;24.00;;;;;-144.62;100.00;60556.56;5042027;28;45303;-75
2024/01/06 03:43:43;;;;;;;;;8.67;7.00;;;;;-144.62;100.00;60556.56;5041766;28;45417;-75
2024/01/06 03:46:08;;;;;;;;;26.67;22.67;;;;;-144.62;100.00;60556.56;5041926;28;46651;-75
2024/01/06 03:48:34;;;;;;;;;26.67;25.67;;;;;-144.62;100.00;60556.56;5041415;28;45249;-75
2024/01/06 03:51:00;;;;;;;;;24.67;22.00;;;;;-144.62;100.00;60556.56;5035413;28;45525;-75
2024/01/06 03:53:25;;;;;;;;;27.67;26.00;;;;;-144.62;100.00;60556.56;5040451;28;45612;-75
2024/01/06 03:55:51;;;;;;;;;32.67;31.00;;;;;-144.62;100.00;60556.56;5035621;28;46853;-75
2024/01/06 03:58:17;;;;;;;;;27.33;27.33;;;;;-144.62;100.00;60556.56;5039224;27;45697;-75
2024/01/06 04:00:42;;;;;;;;;35.00;29.00;;;;;-144.62;100.00;60556.56;5037246;28;45360;-75
2024/01/06 04:03:08;;;;;;;;;26.67;26.00;;;;;-144.62;100.00;60556.56;5038142;27;45437;-75
2024/01/06 04:05:34;;;;;;;;;34.00;29.00;;;;;-144.62;100.00;60556.56;5039939;28;47174;-75
2024/01/06 04:07:59;;;;;;;;;5.33;1.33;;;;;-144.62;100.00;60556.56;5040459;27;45348;-75
2024/01/06 04:10:24;;;;;;;;;29.00;25.33;;;;;-144.62;100.00;60556.56;5040768;27;45316;-75
2024/01/06 04:12:50;;;;;;;;;33.00;29.33;;;;;-144.62;100.00;60556.56;5038065;27;45563;-75
2024/01/06 04:15:16;;;;;;;;;19.33;17.00;;;;;-144.62;100.00;60556.56;5041727;28;46332;-75
2024/01/06 04:17:41;;;;;;;;;26.67;25.33;;;;;-144.62;100.00;60556.56;5040953;28;45433;-75
2024/01/06 04:20:07;;;;;;;;;25.67;25.33;;;;;-144.62;100.00;60556.56;5041668;28;45360;-75
2024/01/06 04:22:33;;;;;;;;;31.00;26.00;;;;;-144.62;100.00;60556.56;5040783;28;45242;-75
2024/01/06 04:24:58;;;;;;;;;29.00;25.67;;;;;-144.62;100.00;60556.56;5039271;28;49127;-75
2024/01/06 04:27:24;;;;;;;;;32.75;28.50;;;;;-144.62;100.00;60556.56;5039326;28;45447;-75
2024/01/06 04:29:52;;;;;;;;;28.00;25.67;;;;;-144.62;100.00;60556.56;5034591;28;45402;-75
2024/01/06 04:32:18;;;;;;;;;26.00;24.00;;;;;-144.62;100.00;60556.56;5039061;28;45468;-75
2024/01/06 04:34:43;;;;;;;;;35.25;32.00;;;;;-144.62;100.00;60556.56;5038350;28;45455;-75
2024/01/06 04:37:09;;;;;;;;;40.00;37.25;;;;;-144.62;100.00;60556.56;5039002;28;47598;-75
2024/01/06 04:39:34;;;;;;;;;37.75;34.75;;;;;-144.62;100.00;60556.56;5039513;28;45406;-75
2024/01/06 04:41:59;;;;;;;;;42.75;37.25;;;;;-144.62;100.00;60556.56;5040835;28;45491;-75
2024/01/06 04:44:25;;;;;;;;;50.75;39.00;;;;;-144.62;100.00;60556.56;5040733;28;45384;-75
2024/01/06 04:46:50;;;;;;;;;34.75;33.50;;;;;-144.62;100.00;60556.56;5039915;27;45399;-76
2024/01/06 04:49:15;;;;;;;;;30.75;27.50;;;;;-144.62;100.00;60556.56;5036847;27;45403;-75
2024/01/06 04:51:41;;;;;;;;;45.00;39.00;;;;;-144.62;100.00;60556.56;5036206;28;45289;-76
2024/01/06 04:54:06;;;;;;;;;44.25;34.50;;;;;-144.62;100.00;60556.56;5038673;28;48153;-75
2024/01/06 04:56:31;;;;;;;;;38.33;31.33;;;;;-144.62;100.00;60556.56;5040503;28;45321;-75
2024/01/06 04:58:57;;;;;;;;;33.67;29.33;;;;;-144.62;100.00;60556.56;5038974;28;45413;-76
2024/01/06 05:01:24;;;;;;;;;32.50;32.25;;;;;-144.62;100.00;60556.56;5040094;28;45360;-76
2024/01/06 05:03:49;;;;;;;;;40.33;35.00;;;;;-144.62;100.00;60556.56;5033971;28;47053;-76
2024/01/06 05:06:14;;;;;;;;;32.67;29.67;;;;;-144.62;100.00;60556.56;5039998;28;45225;-76
2024/01/06 05:08:44;;;;;;;;;36.00;31.33;;;;;-144.62;100.00;60556.56;5040364;27;45535;-76
2024/01/06 05:11:10;;;;;;;;;30.00;29.00;;;;;-144.62;100.00;60556.56;5040888;28;45422;-75
2024/01/06 05:13:35;;;;;;;;;39.00;33.67;;;;;-144.62;100.00;60556.56;5033246;28;46459;-75
2024/01/06 05:16:00;;;;;;;;;33.33;29.00;;;;;-144.62;100.00;60556.56;5038897;27;45305;-75
2024/01/06 05:18:26;;;;;;;;;32.67;30.00;;;;;-144.62;100.00;60556.56;5034943;28;45486;-75
2024/01/06 05:20:51;;;;;;;;;33.00;30.00;;;;;-144.62;100.00;60556.56;5052722;28;47345;-75
2024/01/06 05:23:16;;;;;;;;;30.33;24.33;;;;;-144.62;100.00;60556.56;5035469;28;46497;-75
2024/01/06 05:25:42;;;;;;;;;27.67;22.00;;;;;-144.62;100.00;60556.56;5035270;28;45450;-75
2024/01/06 05:28:07;;;;;;;;;28.33;25.00;;;;;-144.62;100.00;60556.56;5038446;28;52889;-75
2024/01/06 05:30:32;;;;;;;;;30.00;27.00;;;;;-144.62;100.00;60556.56;5041136;27;45465;-75
2024/01/06 05:32:58;;;;;;;;;33.33;32.33;;;;;-144.62;100.00;60556.56;5039712;28;45505;-75
2024/01/06 05:35:23;;;;;;;;;28.33;24.67;;;;;-144.62;100.00;60556.56;5040062;27;45438;-75
2024/01/06 05:37:48;;;;;;;;;36.67;29.33;;;;;-144.62;100.00;60556.56;5035997;28;45396;-74
2024/01/06 05:40:14;;;;;;;;;28.67;24.33;;;;;-144.62;100.00;60556.56;5041460;27;45390;-75
2024/01/06 05:42:40;;;;;;;;;28.00;26.67;;;;;-144.62;100.00;60556.56;5034380;27;47126;-75
2024/01/06 05:45:05;;;;;;;;;24.00;20.33;;;;;-144.62;100.00;60556.56;5039135;28;45442;-75
2024/01/06 05:47:31;;;;;;;;;23.00;18.33;;;;;-144.62;100.00;60556.56;5035872;28;45654;-75
2024/01/06 05:49:56;;;;;;;;;29.67;26.00;;;;;-144.62;100.00;60556.56;5040576;28;45408;-75
2024/01/06 05:52:23;;;;;;;;;28.00;24.67;;;;;-144.62;100.00;60556.56;5039750;28;46070;-75
2024/01/06 05:54:48;;;;;;;;;22.67;22.67;;;;;-144.62;100.00;60556.56;5034607;28;45372;-75
2024/01/06 05:57:14;;;;;;;;;27.67;21.33;;;;;-144.62;100.00;60556.56;5038016;28;45367;-75
2024/01/06 05:59:40;;;;;;;;;22.00;22.00;;;;;-144.62;100.00;60556.56;5040478;28;45364;-75
2024/01/06 06:02:05;;;;;;;;;25.00;23.67;;;;;-144.62;100.00;60556.56;5039798;28;45473;-75
2024/01/06 06:04:31;;;;;;;;;31.67;22.00;;;;;-144.62;100.00;60556.56;5039897;28;45431;-75
2024/01/06 06:06:56;;;;;;;;;30.67;26.00;;;;;-144.62;100.00;60556.56;5039542;28;45399;-75
2024/01/06 06:09:22;;;;;;;;;25.33;21.33;;;;;-144.62;100.00;60556.56;5040036;27;45432;-75
2024/01/06 06:11:47;;;;;;;;;27.33;22.33;;;;;-144.62;100.00;60556.56;5039914;28;46516;-75
2024/01/06 06:14:12;;;;;;;;;25.67;21.33;;;;;-144.62;100.00;60556.56;5030580;28;45189;-75
2024/01/06 06:16:38;;;;;;;;;28.67;21.00;;;;;-144.62;100.00;60556.56;5039412;28;45516;-75
2024/01/06 06:19:03;;;;;;;;;30.67;23.33;;;;;-144.62;100.00;60556.56;5030810;27;45441;-75
2024/01/06 06:21:28;;;;;;;;;22.67;20.33;;;;;-144.62;100.00;60556.56;5040050;28;45228;-75
2024/01/06 06:23:54;;;;;;;;;23.67;21.67;;;;;-144.62;100.00;60556.56;5033975;28;48965;-75
2024/01/06 06:26:19;;;;;;;;;30.00;24.33;;;;;-144.62;100.00;60556.56;5035414;28;45569;-75
2024/01/06 06:28:44;;;;;;;;;21.00;21.00;;;;;-144.62;100.00;60556.56;5039374;28;45601;-75
2024/01/06 06:31:10;;;;;;;;;31.33;23.67;;;;;-144.62;100.00;60556.56;5038305;28;47120;-75
2024/01/06 06:33:35;;;;;;;;;25.33;21.67;;;;;-144.62;100.00;60556.56;5038026;28;45263;-75
2024/01/06 06:36:04;;;;;;;;;22.33;21.67;;;;;-144.62;100.00;60556.56;5030040;28;45298;-75
2024/01/06 06:38:29;;;;;;;;;20.67;20.67;;;;;-144.62;100.00;60556.56;5039342;28;45269;-76
2024/01/06 06:40:55;;;;;;;;;27.00;21.00;;;;;-144.62;100.00;60556.56;5030918;28;45551;-76
2024/01/06 06:43:20;;;;;;;;;16.00;11.67;;;;;-144.62;100.00;60556.56;5038929;28;45517;-76
2024/01/06 06:45:46;;;;;;;;;22.00;18.00;;;;;-144.62;100.00;60556.56;5031929;28;45450;-75
2024/01/06 06:48:11;;;;;;;;;26.33;22.67;;;;;-144.62;100.00;60556.56;5039600;27;45319;-75
2024/01/06 06:50:36;;;;;;;;;21.00;18.67;;;;;-144.62;100.00;60556.56;5037969;28;46060;-75
2024/01/06 06:53:02;;;;;;;;;25.67;22.67;;;;;-144.62;100.00;60556.56;5038749;28;45520;-75
2024/01/06 06:55:27;;;;;;;;;20.00;17.67;;;;;-144.62;100.00;60556.56;5038874;27;45538;-75
2024/01/06 06:57:53;;;;;;;;;18.33;18.33;;;;;-144.62;100.00;60556.56;5034703;28;45488;-75
2024/01/06 07:00:19;;;;;;;;;23.00;17.00;;;;;-144.62;100.00;60556.56;5049738;28;45548;-75
2024/01/06 07:02:44;;;;;;;;;18.00;17.00;;;;;-144.62;100.00;60556.56;5032593;28;45414;-75
2024/01/06 07:05:10;;;;;;;;;22.00;21.00;;;;;-144.62;100.00;60556.56;5037429;28;45518;-75
2024/01/06 07:07:35;;;;;;;;;18.33;14.00;;;;;-144.62;100.00;60556.56;5037286;27;45228;-75
2024/01/06 07:10:03;;;;;;;;;19.67;17.67;;;;;-144.62;100.00;60556.56;5038943;27;51216;-75
2024/01/06 07:12:28;;;;;;;;;23.33;21.67;;;;;-144.62;100.00;60556.56;5035445;28;45447;-75
2024/01/06 07:14:53;;;;;;;;;18.33;17.33;;;;;-144.62;100.00;60556.56;5036544;28;45422;-75
2024/01/06 07:17:19;;;;;;;;;20.33;17.67;;;;;-144.62;100.00;60556.56;5040735;27;45573;-75
2024/01/06 07:19:44;;;;;;;;;14.33;13.67;;;;;-144.62;100.00;60556.56;5038126;28;45551;-75
2024/01/06 07:22:10;;;;;;;;;22.67;21.00;;;;;-144.62;100.00;60556.56;5038323;28;45626;-75
2024/01/06 07:24:36;;;;;;;;;17.33;16.00;;;;;-144.62;100.00;60556.56;5029939;28;45340;-75
2024/01/06 07:27:01;;;;;;;;;20.00;18.00;;;;;-144.62;100.00;60556.56;5038661;28;45402;-75
2024/01/06 07:29:27;;;;;;;;;20.33;17.00;;;;;-144.62;100.00;60556.56;5032645;28;46662;-75
2024/01/06 07:31:52;;;;;;;;;25.67;18.33;;;;;-144.62;100.00;60556.56;5051026;28;45415;-75
2024/01/06 07:34:18;;;;;;;;;17.33;14.33;;;;;-144.62;100.00;60556.56;5037091;28;47970;-75
2024/01/06 07:36:43;;;;;;;;;18.33;17.67;;;;;-144.62;100.00;60556.56;5035656;28;45408;-75
2024/01/06 07:39:09;;;;;;;;;16.67;14.33;;;;;-144.62;100.00;60556.56;5038843;28;48562;-75
2024/01/06 07:41:34;;;;;;;;;16.00;16.00;;;;;-144.62;100.00;60556.56;5035451;28;45266;-75
2024/01/06 07:44:01;;;;;;;;;19.00;17.33;;;;;-144.62;100.00;60556.56;5040481;27;45390;-75
2024/01/06 07:46:26;;;;;;;;;23.00;18.33;;;;;-144.62;100.00;60556.56;5036422;28;45539;-75
2024/01/06 07:48:51;;;;;;;;;25.00;19.00;;;;;-144.62;100.00;60556.56;5028875;27;51442;-75
2024/01/06 07:51:17;;;;;;;;;24.33;21.00;;;;;-144.62;100.00;60556.56;5041309;28;52121;-76
2024/01/06 07:53:42;;;;;;;;;18.33;17.67;;;;;-144.62;100.00;60556.56;5041327;28;45242;-76
2024/01/06 07:56:08;;;;;;;;;24.67;21.00;;;;;-144.62;100.00;60556.56;5040899;28;45267;-75
2024/01/06 07:58:33;;;;;;;;;21.33;16.00;;;;;-144.62;100.00;60556.56;5039582;28;47448;-76
2024/01/06 08:00:59;;;;;;;;;24.00;21.00;;;;;-144.62;100.00;60556.56;5041681;28;45334;-75
2024/01/06 08:03:24;;;;;;;;;20.00;17.00;;;;;-144.62;100.00;60556.56;5040481;28;46298;-76
2024/01/06 08:05:50;;;;;;;;;21.33;19.00;;;;;-144.62;100.00;60556.56;5042133;28;45319;-75
2024/01/06 08:08:16;;;;;;;;;22.33;18.67;;;;;-144.62;100.00;60556.56;5036195;27;45714;-76
2024/01/06 08:10:42;;;;;;;;;16.33;16.00;;;;;-144.62;100.00;60556.56;5035124;28;45542;-76
2024/01/06 08:13:07;;;;;;;;;15.00;12.00;;;;;-144.62;100.00;60556.56;5036683;28;45532;-75
2024/01/06 08:15:33;;;;;;;;;19.33;19.00;;;;;-144.62;100.00;60556.56;5042004;27;45431;-75
2024/01/06 08:17:58;;;;;;;;;22.67;18.67;;;;;-144.62;100.00;60556.56;5039293;28;46738;-75
2024/01/06 08:20:23;;;;;;;;;20.33;16.00;;;;;-144.62;100.00;60556.56;5041644;28;45232;-76
2024/01/06 08:22:49;;;;;;;;;18.67;18.00;;;;;-144.62;100.00;60556.56;5040236;28;45441;-76
2024/01/06 08:25:15;;;;;;;;;17.00;16.00;;;;;-144.62;100.00;60556.56;5040501;28;45471;-75
2024/01/06 08:27:41;;;;;;;;;18.00;15.33;;;;;-144.62;100.00;60556.56;5040035;27;47960;-74
2024/01/06 08:30:07;;;;;;;;;16.33;16.33;;;;;-144.62;100.00;60556.56;5040889;28;47776;-75
2024/01/06 08:32:32;;;;;;;;;16.00;14.67;;;;;-144.62;100.00;60556.56;5040800;27;45240;-75
2024/01/06 08:34:57;;;;;;;;;16.33;12.33;;;;;-144.62;100.00;60556.56;5041279;28;45437;-76
2024/01/06 08:37:23;;;;;;;;;17.00;12.67;;;;;-144.62;100.00;60556.56;5039958;28;45345;-75
2024/01/06 08:39:48;;;;;;;;;13.33;12.67;;;;;-144.62;100.00;60556.56;5035201;28;45304;-76
2024/01/06 08:42:13;;;;;;;;;13.33;12.00;;;;;-144.62;100.00;60556.56;5040413;28;45475;-76
2024/01/06 08:44:39;;;;;;;;;16.67;13.33;;;;;-144.62;100.00;60556.56;5042140;27;45419;-75
2024/01/06 08:47:04;;;;;;;;;11.67;11.67;;;;;-144.62;100.00;60556.56;5039382;28;46889;-74
2024/01/06 08:49:30;;;;;;;;;13.00;13.00;;;;;-144.62;100.00;60556.56;5041179;28;45453;-76
2024/01/06 08:51:55;;;;;;;;;19.00;15.00;;;;;-144.62;100.00;60556.56;5040139;28;46949;-76
2024/01/06 08:54:20;;;;;;;;;24.67;18.00;;;;;-144.62;100.00;60556.56;5037743;28;45359;-73
2024/01/06 08:56:45;;;;;;;;;22.33;18.67;;;;;-144.62;100.00;60556.56;5038579;28;52334;-75
2024/01/06 08:59:11;;;;;;;;;20.67;17.67;;;;;-144.62;100.00;60556.56;5038936;28;45401;-76
2024/01/06 09:01:37;;;;;;;;;27.33;21.00;;;;;-144.62;100.00;60556.56;5041070;28;45345;-76
2024/01/06 09:04:03;;;;;;;;;19.67;18.00;;;;;-144.62;100.00;60556.56;5040754;28;45431;-79
2024/01/06 09:06:28;;;;;;;;;23.00;21.33;;;;;-144.62;100.00;60556.56;5040466;28;45239;-76
2024/01/06 09:08:53;;;;;;;;;22.00;19.67;;;;;-144.62;100.00;60556.56;5040210;27;45390;-74
2024/01/06 09:11:19;;;;;;;;;18.33;15.33;;;;;-144.62;100.00;60556.56;5040722;28;46383;-74
2024/01/06 09:13:44;;;;;;;;;13.67;11.00;;;;;-144.62;100.00;60556.56;5033408;28;45576;-75
2024/01/06 09:16:10;;;;;;;;;21.33;17.33;;;;;-144.62;100.00;60556.56;5053909;28;47069;-74
2024/01/06 09:18:36;;;;;;;;;22.00;18.33;;;;;-144.62;100.00;60556.56;5034034;27;45224;-74
2024/01/06 09:21:01;;;;;;;;;26.67;22.00;;;;;-144.62;100.00;60556.56;5038304;28;45415;-75
2024/01/06 09:23:27;;;;;;;;;20.67;19.00;;;;;-144.62;100.00;60556.56;5035638;28;45722;-75
2024/01/06 09:25:52;;;;;;;;;27.33;21.33;;;;;-144.62;100.00;60556.56;5031733;28;65842;-74
2024/01/06 09:28:18;;;;;;;;;18.00;17.33;;;;;-144.62;100.00;60556.56;5032208;28;45373;-74
2024/01/06 09:30:44;;;;;;;;;16.67;15.33;;;;;-144.62;100.00;60556.56;5039926;28;45386;-75
2024/01/06 09:33:09;;;;;;;;;16.67;12.67;;;;;-144.62;100.00;60556.56;5039332;28;45573;-75
2024/01/06 09:35:35;;;;;;;;;16.00;13.00;;;;;-144.62;100.00;60556.56;5040037;28;45509;-75
2024/01/06 09:38:00;;;;;;;;;12.00;9.00;;;;;-144.62;100.00;60556.56;5039997;28;45270;-75
2024/01/06 09:40:25;;;;;;;;;14.00;11.50;;;;;-144.62;100.00;60556.56;5039267;28;45365;-74
2024/01/06 09:42:51;;;;;;;;;12.33;11.00;;;;;-144.62;100.00;60556.56;5040593;28;45584;-74
2024/01/06 09:45:16;;;;;;;;;7.00;7.00;;;;;-144.62;100.00;60556.56;5035513;28;47202;-74
2024/01/06 09:47:42;;;;;;;;;8.00;7.67;;;;;-144.62;100.00;60556.56;5037374;28;46268;-74
2024/01/06 09:50:13;;;;;;;;;4.67;4.67;;;;;-144.62;100.00;60556.56;5040176;28;45455;-73
2024/01/06 09:52:43;;;;;;;;;7.33;6.00;;;;;-144.62;100.00;60556.56;5040242;28;45309;-74
2024/01/06 09:55:11;;;;;;;;;2.00;2.00;;;;;-144.62;100.00;60556.56;5039436;28;45335;-74
2024/01/06 09:57:37;;;;;;;;;5.33;5.33;;;;;-144.62;100.00;60556.56;5039325;28;45320;-73
2024/01/06 10:00:04;;;;;;;;;9.00;8.00;;;;;-144.62;100.00;60556.56;5038832;28;45482;-73
2024/01/06 10:02:31;;;;;;;;;6.67;6.33;;;;;-144.62;100.00;60556.56;5039009;28;45498;-73
2024/01/06 10:04:57;;;;;;;;;8.33;7.00;;;;;-144.62;100.00;60556.56;5039277;28;46209;-74
2024/01/06 10:07:22;;;;;;;;;6.33;6.33;;;;;-144.62;100.00;60556.56;5039286;28;45511;-74
2024/01/06 10:09:47;;;;;;;;;5.33;5.33;;;;;-144.62;100.00;60556.56;5040168;27;45642;-74
2024/01/06 10:12:13;;;;;;;;;6.67;3.67;;;;;-144.62;100.00;60556.56;5038973;28;45771;-74
2024/01/06 10:14:39;;;;;;;;;2.00;2.00;;;;;-144.62;100.00;60556.56;5031165;28;46621;-74
2024/01/06 10:17:08;;;;;;;;;7.00;7.00;;;;;-144.62;100.00;60556.56;5039351;28;45413;-75
2024/01/06 10:19:35;;;;;;;;;6.00;6.00;;;;;-144.62;100.00;60556.56;5030151;28;45626;-75
2024/01/06 10:22:02;;;;;;;;;5.33;4.00;;;;;-144.62;100.00;60556.56;5051378;28;45395;-75
2024/01/06 10:24:28;;;;;;;;;6.00;4.00;;;;;-144.62;100.00;60556.56;5030612;28;46056;-74
2024/01/06 10:26:53;;;;;;;;;7.00;7.00;;;;;-144.62;100.00;60556.56;5039185;28;45321;-73
2024/01/06 10:29:18;;;;;;;;;3.33;2.00;;;;;-144.62;100.00;60556.56;5038078;28;45305;-74
2024/01/06 10:31:44;;;;;;;;;7.33;6.00;;;;;-144.62;100.00;60556.56;5038019;28;45380;-75
2024/01/06 10:34:09;;;;;;;;;4.67;4.67;;;;;-144.62;100.00;60556.56;5036025;28;45239;-76
2024/01/06 10:36:35;;;;;;;;;4.00;4.00;;;;;-144.62;100.00;60556.56;5048959;27;45377;-75
2024/01/06 10:39:03;;;;;;;;;2.00;2.00;;;;;-144.62;100.00;60556.56;5037943;28;45214;-75
2024/01/06 10:41:30;;;;;;;;;3.33;3.33;;;;;-144.62;100.00;60556.56;5048229;28;45517;-73
2024/01/06 10:44:01;;;;;;;;;6.33;6.33;;;;;-144.62;100.00;60556.56;5038734;28;46528;-74
2024/01/06 10:46:27;;;;;;;;;4.67;4.67;;;;;-144.62;100.00;60556.56;5033480;27;45255;-74